Time;durP1;ratioP1;P1;durP2;ratioP2;P2;SDS_P1;SDS_P2;PMS_P1;PMS_P2;Temp;Humidity;BMP_temperature;BMP_pressure;BME280_temperature;BME280_humidity;BME280_pressure;Samples;Min_cycle;Max_cycle;Signal;HPM_P1;HPM_P2
2022/07/07 00:00:12;;;;;;;10.67;5.87;;;;;;;17.45;78.40;101900.28;5022721;29;20166;-72
2022/07/07 00:02:43;;;;;;;7.05;5.90;;;;;;;17.42;78.48;101901.25;5030842;29;20034;-71
2022/07/07 00:05:16;;;;;;;9.00;5.90;;;;;;;17.46;78.33;101892.34;5041382;29;20344;-69
2022/07/07 00:07:47;;;;;;;;;;;;;;;17.56;77.47;101887.72;5044113;29;20034;-76
2022/07/07 00:10:19;;;;;;;10.25;7.22;;;;;;;17.51;78.03;101879.06;5045416;29;19992;-72
2022/07/07 00:12:50;;;;;;;9.47;6.90;;;;;;;17.45;78.08;101876.56;5045185;29;20034;-75
2022/07/07 00:15:22;;;;;;;8.37;5.73;;;;;;;17.46;78.08;101887.06;5031159;29;20040;-70
2022/07/07 00:17:55;;;;;;;12.77;6.33;;;;;;;17.43;78.18;101883.66;5035446;29;20034;-74
2022/07/07 00:20:26;;;;;;;8.65;6.00;;;;;;;17.44;78.29;101883.63;5027498;29;20026;-74
2022/07/07 00:22:58;;;;;;;9.75;7.28;;;;;;;17.45;77.82;101874.81;5026269;29;20050;-72
2022/07/07 00:25:30;;;;;;;8.27;6.43;;;;;;;17.52;77.95;101875.53;5025945;29;20461;-76
2022/07/07 00:28:02;;;;;;;10.40;6.00;;;;;;;17.47;77.91;101874.78;5026009;29;20042;-72
2022/07/07 00:30:33;;;;;;;7.57;5.60;;;;;;;17.50;77.79;101869.44;5026365;29;20137;-71
2022/07/07 00:33:04;;;;;;;9.63;6.13;;;;;;;17.46;77.78;101865.97;5028723;29;20038;-75
2022/07/07 00:35:36;;;;;;;7.17;5.70;;;;;;;17.49;77.74;101855.38;5045649;29;20022;-71
2022/07/07 00:38:10;;;;;;;12.80;5.80;;;;;;;17.52;77.54;101848.28;5044773;29;20030;-72
2022/07/07 00:40:41;;;;;;;6.60;5.72;;;;;;;17.49;77.58;101842.19;5044967;29;20490;-73
2022/07/07 00:43:13;;;;;;;7.00;5.00;;;;;;;17.51;77.66;101847.44;5044806;29;20034;-72
2022/07/07 00:45:51;;;;;;;8.33;6.03;;;;;;;17.51;77.67;101847.44;5044120;29;20041;-74
2022/07/07 00:48:23;;;;;;;6.95;5.32;;;;;;;17.44;78.01;101840.59;5026215;29;20118;-76
2022/07/07 00:50:55;;;;;;;9.07;5.65;;;;;;;17.44;78.37;101840.59;5025758;29;20034;-75
2022/07/07 00:53:27;;;;;;;7.27;5.20;;;;;;;17.42;78.59;101834.47;5025433;29;20167;-76
2022/07/07 00:55:58;;;;;;;10.35;5.90;;;;;;;17.44;78.18;101833.53;5025780;29;20113;-71
2022/07/07 00:58:30;;;;;;;6.33;5.30;;;;;;;17.45;77.93;101832.66;5025325;29;20069;-72
2022/07/07 01:01:02;;;;;;;7.97;5.03;;;;;;;17.43;78.22;101826.53;5029320;29;20103;-76
2022/07/07 01:03:34;;;;;;;6.55;4.68;;;;;;;17.43;78.24;101829.16;5028684;29;20366;-71
2022/07/07 01:06:05;;;;;;;8.57;4.53;;;;;;;17.40;78.58;101828.38;5028878;29;20052;-75
2022/07/07 01:08:37;;;;;;;7.27;4.50;;;;;;;17.42;78.83;101829.19;5044990;29;20030;-71
2022/07/07 01:11:09;;;;;;;8.85;4.65;;;;;;;17.43;78.45;101830.94;5028701;29;20447;-70
2022/07/07 01:13:40;;;;;;;11.37;4.70;;;;;;;17.47;78.56;101836.09;5045562;29;20026;-72
2022/07/07 01:16:11;;;;;;;9.10;5.07;;;;;;;17.47;78.53;101827.34;5040382;29;20038;-71
2022/07/07 01:18:44;;;;;;;6.37;4.33;;;;;;;17.49;78.30;101825.53;5043943;29;20026;-75
2022/07/07 01:21:20;;;;;;;7.38;4.43;;;;;;;17.48;78.66;101823.78;5042783;29;20038;-76
2022/07/07 01:23:51;;;;;;;6.68;4.40;;;;;;;17.49;78.71;101825.53;5025364;29;20034;-72
2022/07/07 01:26:26;;;;;;;5.80;4.43;;;;;;;17.48;78.96;101824.66;5025450;29;20039;-76
2022/07/07 01:28:59;;;;;;;7.20;4.32;;;;;;;17.49;78.55;101829.00;5025251;29;20035;-70
2022/07/07 01:31:30;;;;;;;6.50;3.97;;;;;;;17.51;78.98;101818.44;5026040;29;20035;-72
2022/07/07 01:34:03;;;;;;;7.83;5.10;;;;;;;17.48;78.84;101824.66;5025428;29;20030;-78
2022/07/07 01:36:34;;;;;;;;;;;;;;;17.53;78.18;101819.25;5026146;29;20034;-70
2022/07/07 01:39:05;;;;;;;8.23;4.73;;;;;;;17.49;79.17;101815.84;5024768;29;20365;-73
2022/07/07 01:41:37;;;;;;;6.57;4.37;;;;;;;17.50;79.07;101806.16;5025119;29;20296;-76
2022/07/07 01:44:08;;;;;;;5.63;4.07;;;;;;;17.49;79.21;101807.06;5024943;29;20536;-70
2022/07/07 01:46:39;;;;;;;6.43;4.37;;;;;;;17.48;79.22;101795.66;5008589;29;20102;-77
2022/07/07 01:49:11;;;;;;;6.33;4.23;;;;;;;17.47;79.57;101800.97;5008129;29;20050;-70
2022/07/07 01:51:44;;;;;;;6.93;4.53;;;;;;;17.48;79.37;101794.78;5024916;29;20091;-70
2022/07/07 01:54:16;;;;;;;9.80;4.72;;;;;;;17.46;80.07;101794.81;5025160;29;20622;-72
2022/07/07 01:56:49;;;;;;;6.10;4.30;;;;;;;17.46;79.80;101800.09;5025869;29;20034;-71
2022/07/07 01:59:21;;;;;;;;;;;;;;;17.55;78.60;101792.84;5025446;29;20411;-74
2022/07/07 02:01:53;;;;;;;7.45;4.75;;;;;;;17.53;79.68;101789.38;5025055;29;19923;-74
2022/07/07 02:04:24;;;;;;;11.83;5.60;;;;;;;17.48;80.05;101797.41;5026306;29;20034;-71
2022/07/07 02:06:56;;;;;;;8.47;4.90;;;;;;;17.47;80.28;101800.97;5025894;29;20023;-78
2022/07/07 02:09:28;;;;;;;7.63;4.87;;;;;;;17.46;80.70;101797.44;5025652;29;20034;-75
2022/07/07 02:12:01;;;;;;;7.00;4.93;;;;;;;17.45;80.80;101793.09;5025481;29;20383;-71
2022/07/07 02:14:33;;;;;;;8.88;4.80;;;;;;;17.45;81.10;101795.75;5008951;29;20074;-75
2022/07/07 02:17:04;;;;;;;10.65;4.80;;;;;;;17.46;81.15;101796.59;5025273;29;20066;-76
2022/07/07 02:19:36;;;;;;;7.00;4.60;;;;;;;17.43;81.57;101794.03;5025301;29;20057;-75
2022/07/07 02:22:07;;;;;;;12.27;5.47;;;;;;;17.45;81.84;101787.84;5024551;29;20034;-72
2022/07/07 02:24:38;;;;;;;8.73;4.90;;;;;;;17.46;81.78;101780.78;5024912;29;20104;-74
2022/07/07 02:27:11;;;;;;;7.97;4.43;;;;;;;17.45;81.67;101786.94;5024730;29;20030;-71
2022/07/07 02:29:42;;;;;;;9.35;4.43;;;;;;;17.47;81.96;101788.66;5024349;29;20105;-72
2022/07/07 02:32:14;;;;;;;8.90;4.10;;;;;;;17.51;81.58;101792.06;5025535;29;20530;-72
2022/07/07 02:34:45;;;;;;;7.27;4.07;;;;;;;17.49;81.74;101778.94;5025377;29;20035;-72
2022/07/07 02:37:17;;;;;;;7.43;4.20;;;;;;;17.50;81.88;101785.94;5041763;29;20048;-74
2022/07/07 02:39:48;;;;;;;6.77;3.60;;;;;;;17.53;81.92;101781.47;5044176;29;20033;-73
2022/07/07 02:42:20;;;;;;;9.70;4.23;;;;;;;17.50;82.19;101775.41;5043339;29;20030;-71
2022/07/07 02:44:51;;;;;;;10.00;3.60;;;;;;;17.54;81.71;101781.44;5043433;29;20057;-71
2022/07/07 02:47:22;;;;;;;7.47;3.90;;;;;;;17.49;82.28;101785.97;5042968;29;20038;-73
2022/07/07 02:49:54;;;;;;;8.77;4.13;;;;;;;17.52;82.05;101767.44;5042203;29;20102;-76
2022/07/07 02:52:25;;;;;;;7.93;5.43;;;;;;;17.54;82.01;101781.44;5026107;29;20456;-73
2022/07/07 02:54:57;;;;;;;6.63;3.60;;;;;;;17.54;81.65;101770.03;5024688;29;20378;-71
2022/07/07 02:57:28;;;;;;;7.27;3.57;;;;;;;17.53;81.72;101771.78;5025103;29;20054;-72
2022/07/07 02:59:59;;;;;;;6.70;3.50;;;;;;;17.55;81.25;101783.19;5024780;29;20062;-72
2022/07/07 03:02:31;;;;;;;5.87;3.90;;;;;;;17.57;81.50;101786.63;5025114;29;20034;-72
2022/07/07 03:05:02;;;;;;;9.63;4.67;;;;;;;17.56;81.93;101784.03;5025340;29;20528;-73
2022/07/07 03:07:34;;;;;;;10.60;3.53;;;;;;;17.54;82.15;101773.53;5025818;29;20111;-77
2022/07/07 03:10:06;;;;;;;7.93;4.00;;;;;;;17.55;82.37;101783.19;5026071;29;20067;-69
2022/07/07 03:12:38;;;;;;;7.70;3.95;;;;;;;17.53;82.53;101781.47;5024048;29;20113;-71
2022/07/07 03:15:10;;;;;;;7.57;3.40;;;;;;;17.53;82.78;101789.38;5026974;29;20108;-72
2022/07/07 03:17:46;;;;;;;6.07;3.35;;;;;;;17.50;84.17;101793.84;5028260;29;20065;-73
2022/07/07 03:20:17;;;;;;;9.27;3.83;;;;;;;17.30;87.21;101789.06;5046796;29;20128;-71
2022/07/07 03:22:49;;;;;;;7.57;3.80;;;;;;;17.19;88.39;101798.16;5051340;29;20049;-76
2022/07/07 03:25:20;;;;;;;4.60;2.73;;;;;;;17.05;86.89;101794.09;5051304;29;20092;-75
2022/07/07 03:27:51;;;;;;;5.47;2.80;;;;;;;16.93;86.09;101789.94;5050673;29;20053;-71
2022/07/07 03:30:23;;;;;;;4.27;2.30;;;;;;;16.88;87.27;101796.25;5031964;29;20125;-74
2022/07/07 03:32:54;;;;;;;4.40;2.03;;;;;;;16.83;86.52;101808.63;5047630;29;20125;-73
2022/07/07 03:35:25;;;;;;;2.67;2.13;;;;;;;16.68;87.78;101792.25;5045201;29;20109;-71
2022/07/07 03:37:58;;;;;;;4.27;2.20;;;;;;;16.44;90.47;101798.03;5042473;29;20037;-70
2022/07/07 03:40:29;;;;;;;5.63;2.53;;;;;;;16.19;92.66;101802.03;5044624;29;20034;-71
2022/07/07 03:43:01;;;;;;;3.80;2.20;;;;;;;16.08;93.46;101803.16;5008815;29;20034;-71
2022/07/07 03:45:33;;;;;;;4.33;2.60;;;;;;;15.94;95.58;101795.53;5025572;29;20030;-71
2022/07/07 03:48:04;;;;;;;3.53;2.40;;;;;;;15.81;96.40;101802.78;5025792;29;20315;-80
2022/07/07 03:50:36;;;;;;;8.23;3.30;;;;;;;15.83;98.21;101803.63;5026659;29;20022;-72
2022/07/07 03:53:07;;;;;;;4.53;2.70;;;;;;;15.73;98.00;101809.91;5026382;29;20057;-76
2022/07/07 03:55:38;;;;;;;4.60;3.00;;;;;;;15.73;98.65;101802.91;5026598;29;20041;-76
2022/07/07 03:58:10;;;;;;;4.23;3.00;;;;;;;15.70;99.63;101797.69;5044720;29;20098;-73
2022/07/07 04:00:41;;;;;;;4.20;2.80;;;;;;;15.69;99.96;101793.31;5044297;29;20046;-83
2022/07/07 04:03:12;;;;;;;4.27;3.20;;;;;;;15.73;100.00;101796.75;5044075;29;20085;-75
2022/07/07 04:05:44;;;;;;;5.27;3.40;;;;;;;15.73;100.00;101796.75;5043756;29;20427;-74
2022/07/07 04:08:15;;;;;;;5.43;3.40;;;;;;;15.75;100.00;101798.47;5045881;29;20042;-73
2022/07/07 04:10:47;;;;;;;5.80;3.63;;;;;;;15.75;100.00;101793.22;5044646;29;20440;-71
2022/07/07 04:13:18;;;;;;;5.97;3.77;;;;;;;15.77;100.00;101790.59;5035356;29;20026;-82
2022/07/07 04:15:49;;;;;;;6.17;4.30;;;;;;;15.75;100.00;101774.81;5028273;29;20435;-72
2022/07/07 04:18:21;;;;;;;6.10;3.57;;;;;;;15.76;100.00;101776.59;5027674;29;20035;-85
2022/07/07 04:20:52;;;;;;;4.80;3.67;;;;;;;15.80;100.00;101767.75;5026230;29;20031;-76
2022/07/07 04:23:23;;;;;;;6.53;4.20;;;;;;;15.87;100.00;101776.38;5025961;29;20042;-77
2022/07/07 04:25:55;;;;;;;4.97;4.30;;;;;;;15.86;100.00;101777.28;5009377;29;20585;-72
2022/07/07 04:28:28;;;;;;;5.90;4.37;;;;;;;15.88;100.00;101774.63;5027509;29;20037;-75
2022/07/07 04:30:59;;;;;;;6.63;4.07;;;;;;;15.88;100.00;101772.84;5027275;29;20127;-72
2022/07/07 04:33:31;;;;;;;5.87;3.83;;;;;;;15.92;100.00;101771.03;5025622;29;20059;-74
2022/07/07 04:36:02;;;;;;;5.93;3.80;;;;;;;15.97;100.00;101769.16;5025235;29;20041;-70
2022/07/07 04:38:35;;;;;;;4.67;3.80;;;;;;;16.01;100.00;101782.22;5025189;29;20374;-76
2022/07/07 04:41:06;;;;;;;;;;;;;;;16.11;99.90;101787.31;5025720;29;20026;-78
2022/07/07 04:43:37;;;;;;;8.45;3.83;;;;;;;15.99;100.00;101793.69;5025533;29;19920;-86
2022/07/07 04:46:09;;;;;;;5.10;3.57;;;;;;;16.02;100.00;101812.03;5024249;29;20034;-73
2022/07/07 04:48:40;;;;;;;5.73;3.80;;;;;;;15.99;100.00;101810.34;5023752;29;20050;-71
2022/07/07 04:51:11;;;;;;;4.37;3.30;;;;;;;15.98;100.00;101810.34;5023459;29;20034;-72
2022/07/07 04:53:43;;;;;;;4.17;3.00;;;;;;;15.88;100.00;101817.56;5025376;29;20030;-83
2022/07/07 04:56:14;;;;;;;6.93;3.23;;;;;;;15.74;100.00;101820.38;5027685;29;20034;-78
2022/07/07 04:58:45;;;;;;;5.97;3.37;;;;;;;15.80;100.00;101817.69;5027197;29;20070;-72
2022/07/07 05:01:17;;;;;;;5.23;3.07;;;;;;;15.76;100.00;101823.00;5026576;29;20031;-81
2022/07/07 05:03:48;;;;;;;5.23;3.20;;;;;;;15.70;100.00;101823.97;5026688;29;20038;-83
2022/07/07 05:06:19;;;;;;;3.30;2.40;;;;;;;15.69;100.00;101823.09;5038128;29;20085;-76
2022/07/07 05:08:51;;;;;;;4.80;2.43;;;;;;;15.62;100.00;101823.25;5045830;29;20172;-72
2022/07/07 05:11:22;;;;;;;6.67;2.40;;;;;;;15.68;100.00;101823.13;5028724;29;20102;-73
2022/07/07 05:13:54;;;;;;;6.80;2.33;;;;;;;15.71;100.00;101825.69;5045144;29;20116;-76
2022/07/07 05:16:25;;;;;;;4.43;2.60;;;;;;;15.80;100.00;101836.09;5045249;29;20395;-79
2022/07/07 05:18:57;;;;;;;3.03;1.60;;;;;;;15.85;100.00;101839.50;5046936;29;20295;-77
2022/07/07 05:21:28;;;;;;;3.60;1.83;;;;;;;15.82;99.61;101836.91;5045015;29;20026;-75
2022/07/07 05:23:59;;;;;;;9.73;2.43;;;;;;;15.82;99.98;101846.59;5045556;29;20027;-73
2022/07/07 05:26:31;;;;;;;4.53;1.73;;;;;;;15.79;99.66;101849.25;5044965;29;20041;-84
2022/07/07 05:29:02;;;;;;;8.70;2.83;;;;;;;15.82;99.78;101847.44;5045913;29;20113;-77
2022/07/07 05:31:34;;;;;;;10.53;1.93;;;;;;;15.89;100.00;101850.84;5044798;29;20334;-72
2022/07/07 05:34:05;;;;;;;8.27;2.00;;;;;;;15.86;99.81;101857.03;5045083;29;20033;-78
2022/07/07 05:36:38;;;;;;;9.40;2.30;;;;;;;15.88;99.09;101854.38;5045338;29;20112;-74
2022/07/07 05:39:13;;;;;;;7.65;2.13;;;;;;;15.83;99.37;101858.84;5044887;29;20335;-73
2022/07/07 05:41:44;;;;;;;6.55;2.05;;;;;;;15.89;99.49;101857.84;5044736;29;20034;-74
2022/07/07 05:44:16;;;;;;;5.10;2.20;;;;;;;16.07;98.77;101861.91;5044431;29;20386;-70
2022/07/07 05:46:49;;;;;;;7.32;2.33;;;;;;;16.14;97.57;101871.44;5043652;29;20041;-74
2022/07/07 05:49:21;;;;;;;6.30;2.20;;;;;;;16.33;96.67;101858.81;5043519;29;20152;-78
2022/07/07 05:51:52;;;;;;;5.90;2.57;;;;;;;16.56;96.32;101872.34;5029208;29;20053;-80
2022/07/07 05:54:23;;;;;;;9.07;2.70;;;;;;;16.61;94.10;101880.16;5032570;29;20117;-73
2022/07/07 05:56:55;;;;;;;4.87;1.77;;;;;;;16.65;93.29;101880.97;5050455;29;20048;-73
2022/07/07 05:59:27;;;;;;;4.45;1.63;;;;;;;16.79;93.67;101889.44;5049702;29;20387;-73
2022/07/07 06:01:58;;;;;;;5.77;1.53;;;;;;;16.66;91.45;101894.06;5050152;29;20034;-74
2022/07/07 06:04:29;;;;;;;6.70;2.03;;;;;;;16.48;92.13;101894.47;5047821;29;20120;-77
2022/07/07 06:07:01;;;;;;;8.50;2.30;;;;;;;16.43;93.20;101906.84;5047764;29;20203;-71
2022/07/07 06:09:32;;;;;;;10.17;2.10;;;;;;;16.33;94.91;101899.13;5044311;29;20038;-72
2022/07/07 06:12:04;;;;;;;7.23;2.33;;;;;;;16.21;95.45;101904.59;5027139;29;20030;-74
2022/07/07 06:14:35;;;;;;;8.23;2.45;;;;;;;16.31;93.32;101916.72;5047922;29;20122;-72
2022/07/07 06:17:09;;;;;;;;;;;;;;;16.35;89.90;101923.63;5049298;29;20069;-73
2022/07/07 06:19:41;;;;;;;7.53;2.45;;;;;;;16.43;89.73;101930.53;5046676;29;19927;-73
2022/07/07 06:22:12;;;;;;;6.67;2.50;;;;;;;16.63;89.88;101941.56;5045919;29;20459;-74
2022/07/07 06:24:43;;;;;;;5.60;2.33;;;;;;;16.59;87.91;101935.47;5045144;29;20144;-82
2022/07/07 06:27:15;;;;;;;8.30;2.27;;;;;;;16.71;88.48;101944.00;5044979;29;20061;-72
2022/07/07 06:29:47;;;;;;;8.47;2.40;;;;;;;16.70;86.10;101948.41;5044297;29;20018;-79
2022/07/07 06:32:18;;;;;;;;;;;;;;;16.90;85.70;101947.19;5044610;29;20026;-75
2022/07/07 06:34:50;;;;;;;8.83;2.43;;;;;;;16.71;84.32;101952.81;5043342;29;20031;-74
2022/07/07 06:37:21;;;;;;;7.90;3.10;;;;;;;16.67;83.11;101956.38;5043896;29;20294;-88
2022/07/07 06:39:54;;;;;;;8.80;2.43;;;;;;;16.74;81.87;101946.59;5043781;29;20117;-75
2022/07/07 06:42:25;;;;;;;15.73;4.15;;;;;;;16.74;82.96;101955.38;5043405;29;20081;-76
2022/07/07 06:44:56;;;;;;;10.00;3.47;;;;;;;16.78;82.13;101962.28;5043970;29;20030;-74
2022/07/07 06:47:28;;;;;;;14.30;3.43;;;;;;;16.93;80.88;101957.66;5044053;29;20158;-73
2022/07/07 06:50:00;;;;;;;11.80;3.23;;;;;;;17.06;80.08;101979.34;5043392;29;20098;-72
2022/07/07 06:52:32;;;;;;;9.35;3.17;;;;;;;17.17;78.54;101981.75;5043108;29;20037;-72
2022/07/07 06:55:05;;;;;;;13.23;3.20;;;;;;;16.97;79.33;101985.69;5042352;29;20030;-71
2022/07/07 06:57:37;;;;;;;14.63;4.90;;;;;;;16.69;82.95;101988.78;5041962;29;20193;-75
2022/07/07 07:00:10;;;;;;;13.63;3.37;;;;;;;16.54;86.64;101982.06;5042048;29;20402;-74
2022/07/07 07:02:43;;;;;;;7.78;2.28;;;;;;;16.41;83.46;101996.34;5042243;29;20750;-72
2022/07/07 07:05:16;;;;;;;9.75;2.00;;;;;;;16.54;84.08;101986.47;5041637;29;20033;-73
2022/07/07 07:07:48;;;;;;;10.35;2.47;;;;;;;16.48;83.52;101991.84;5041736;29;20090;-73
2022/07/07 07:10:19;;;;;;;7.30;2.00;;;;;;;16.89;83.87;101979.69;5041864;29;20541;-72
2022/07/07 07:12:51;;;;;;;10.43;2.20;;;;;;;17.06;81.73;101974.06;5041690;29;20037;-72
2022/07/07 07:15:22;;;;;;;8.70;2.43;;;;;;;17.06;80.68;101989.88;5041501;29;20026;-72
2022/07/07 07:17:53;;;;;;;8.07;2.23;;;;;;;16.99;80.89;101985.66;5041264;29;20033;-74
2022/07/07 07:20:25;;;;;;;8.53;2.40;;;;;;;16.98;81.33;101992.66;5041384;29;20538;-78
2022/07/07 07:22:57;;;;;;;6.93;2.40;;;;;;;17.01;81.22;101997.88;5042092;29;20470;-73
2022/07/07 07:25:29;;;;;;;;;;;;;;;17.04;79.73;101999.59;5042632;29;20037;-74
2022/07/07 07:28:00;;;;;;;7.25;2.60;;;;;;;16.96;80.05;101994.47;5041880;29;19961;-71
2022/07/07 07:30:31;;;;;;;7.63;2.23;;;;;;;17.00;79.01;101997.91;5041765;29;20036;-72
2022/07/07 07:33:03;;;;;;;14.87;3.13;;;;;;;17.23;78.55;102007.97;5041825;29;20030;-74
2022/07/07 07:35:35;;;;;;;7.70;2.63;;;;;;;17.57;78.98;102007.25;5042592;29;20030;-77
2022/07/07 07:38:08;;;;;;;9.50;2.35;;;;;;;17.52;75.19;102019.63;5041863;29;20503;-72
2022/07/07 07:40:41;;;;;;;9.48;2.10;;;;;;;17.82;74.57;102016.31;5041616;29;20042;-75
2022/07/07 07:43:12;;;;;;;8.32;2.47;;;;;;;18.03;72.66;102025.53;5026798;29;20034;-83
2022/07/07 07:45:44;;;;;;;8.97;2.17;;;;;;;17.96;73.12;102023.91;5042858;29;20117;-73
2022/07/07 07:48:16;;;;;;;8.38;2.75;;;;;;;17.77;73.09;102030.50;5041542;29;20034;-77
2022/07/07 07:50:48;;;;;;;8.10;2.30;;;;;;;17.53;74.30;102037.19;5042038;29;20036;-75
2022/07/07 07:53:19;;;;;;;6.77;2.00;;;;;;;17.48;73.74;102043.47;5043205;29;20026;-75
2022/07/07 07:55:51;;;;;;;6.13;2.40;;;;;;;17.39;77.75;102035.75;5041813;29;20034;-73
2022/07/07 07:58:22;;;;;;;10.15;2.60;;;;;;;17.02;78.87;102033.84;5042425;29;20050;-77
2022/07/07 08:00:54;;;;;;;6.80;2.30;;;;;;;16.95;79.09;102050.66;5050094;29;20343;-73
2022/07/07 08:03:25;;;;;;;8.93;2.37;;;;;;;16.20;84.06;102063.38;5058835;29;20037;-75
2022/07/07 08:05:56;;;;;;;4.13;1.40;;;;;;;15.70;86.76;102055.31;5060272;29;20066;-76
2022/07/07 08:08:28;;;;;;;3.83;1.60;;;;;;;15.56;89.11;102055.47;5042556;29;20048;-78
2022/07/07 08:10:59;;;;;;;5.07;1.77;;;;;;;15.77;90.24;102040.34;5059089;29;20042;-74
2022/07/07 08:13:31;;;;;;;5.97;2.00;;;;;;;16.21;88.29;102044.03;5041288;29;20034;-74
2022/07/07 08:16:04;;;;;;;8.20;1.90;;;;;;;16.67;85.89;102045.88;5059402;29;20029;-72
2022/07/07 08:18:35;;;;;;;7.65;2.13;;;;;;;16.96;84.73;102052.41;5042390;29;20033;-76
2022/07/07 08:21:06;;;;;;;4.90;2.07;;;;;;;17.23;81.68;102065.97;5047129;29;20041;-77
2022/07/07 08:23:38;;;;;;;4.43;1.70;;;;;;;17.44;80.38;102059.38;5049366;29;20026;-74
2022/07/07 08:26:09;;;;;;;5.77;1.70;;;;;;;17.41;78.61;102068.19;5056071;29;20224;-73
2022/07/07 08:28:41;;;;;;;7.13;2.90;;;;;;;17.42;77.62;102067.31;5058769;29;20034;-73
2022/07/07 08:31:13;;;;;;;11.05;2.22;;;;;;;17.64;79.95;102064.19;5061158;29;20127;-77
2022/07/07 08:33:45;;;;;;;6.97;2.22;;;;;;;18.03;79.44;102065.09;5063805;29;20025;-73
2022/07/07 08:36:16;;;;;;;6.43;2.27;;;;;;;18.11;76.88;102067.56;5062222;29;20125;-78
2022/07/07 08:38:47;;;;;;;10.90;2.97;;;;;;;17.83;77.23;102069.94;5062084;29;20041;-76
2022/07/07 08:41:19;;;;;;;5.83;2.33;;;;;;;17.22;78.29;102082.66;5059046;29;20030;-75
2022/07/07 08:43:50;;;;;;;8.03;2.10;;;;;;;16.93;81.29;102076.19;5057775;29;20030;-74
2022/07/07 08:46:23;;;;;;;9.73;3.20;;;;;;;16.64;82.43;102082.81;5059952;29;20495;-73
2022/07/07 08:48:54;;;;;;;;;;;;;;;16.93;82.17;102077.03;5058830;29;20051;-74
2022/07/07 08:51:26;;;;;;;5.68;2.05;;;;;;;17.24;83.51;102079.09;5055938;29;19916;-76
2022/07/07 08:54:00;;;;;;;5.23;2.03;;;;;;;17.84;82.99;102077.81;5053045;29;20033;-76
2022/07/07 08:56:32;;;;;;;7.93;2.22;;;;;;;18.12;79.58;102077.19;5051920;29;20390;-84
2022/07/07 08:59:07;;;;;;;9.93;2.92;;;;;;;18.48;77.24;102087.78;5050193;29;20533;-73
2022/07/07 09:01:39;;;;;;;9.43;2.80;;;;;;;18.71;75.20;102096.88;5050563;29;20042;-73
2022/07/07 09:04:10;;;;;;;8.18;2.47;;;;;;;18.26;72.34;102094.47;5050497;29;20022;-75
2022/07/07 09:07:01;;;;;;;8.30;1.90;;;;;;;17.95;74.59;102095.19;5049399;29;20034;-76
2022/07/07 09:09:35;;;;;;;8.60;3.50;;;;;;;17.13;77.38;102108.28;5018446;29;20046;-73
2022/07/07 09:12:09;;;;;;;8.80;3.13;;;;;;;16.80;81.84;102101.84;5048939;29;20034;-75
2022/07/07 09:14:44;;;;;;;8.90;2.63;;;;;;;16.95;83.60;102095.44;5031991;29;20037;-86
2022/07/07 09:17:32;;;;;;;9.07;2.30;;;;;;;17.33;81.72;102104.38;5049225;29;20037;-75
2022/07/07 09:20:05;;;;;;;9.77;2.20;;;;;;;17.72;80.02;102109.72;5049302;29;20388;-73
2022/07/07 09:22:50;;;;;;;9.07;2.28;;;;;;;18.37;77.76;102111.81;5049102;29;20155;-84
2022/07/07 09:25:24;;;;;;;6.03;2.05;;;;;;;18.90;76.78;102110.50;5049095;29;20097;-74
2022/07/07 09:28:06;;;;;;;5.90;2.08;;;;;;;18.95;72.21;102116.53;5048149;29;20030;-72
2022/07/07 09:30:57;;;;;;;8.43;2.37;;;;;;;19.50;70.15;102116.78;5047989;29;20034;-76
2022/07/07 09:33:29;;;;;;;6.07;1.90;;;;;;;19.04;69.60;102124.19;4988461;30;20072;-79
2022/07/07 09:38:50;;;;;;;8.40;2.10;;;;;;;18.50;71.60;102128.22;5047317;29;20037;-80
2022/07/07 09:41:22;;;;;;;4.87;2.00;;;;;;;18.49;72.40;102131.75;5047180;29;20022;-82
2022/07/07 09:43:53;;;;;;;4.68;1.67;;;;;;;18.87;69.79;102143.16;5047954;29;20034;-78
2022/07/07 09:46:26;;;;;;;10.30;2.40;;;;;;;19.23;69.67;102140.44;5047253;29;20194;-76
2022/07/07 09:48:59;;;;;;;5.43;1.90;;;;;;;19.30;67.52;102136.72;5047695;29;20407;-75
2022/07/07 09:51:35;;;;;;;11.48;2.58;;;;;;;19.27;68.94;102144.75;5030761;29;20343;-74
2022/07/07 09:54:12;;;;;;;6.22;2.47;;;;;;;18.95;69.95;102146.47;5045612;29;20037;-72
2022/07/07 09:56:45;;;;;;;7.20;2.45;;;;;;;18.44;70.67;102157.41;5045787;29;20085;-87
2022/07/07 09:59:21;;;;;;;5.20;1.77;;;;;;;17.85;75.15;102174.53;5046120;29;20474;-73
2022/07/07 10:01:54;;;;;;;5.05;1.70;;;;;;;17.18;79.79;102181.97;5046305;29;20054;-73
2022/07/07 10:04:27;;;;;;;6.28;1.88;;;;;;;16.65;81.57;102191.63;5046961;29;20435;-81
2022/07/07 10:06:59;;;;;;;8.13;1.80;;;;;;;16.61;82.67;102182.88;5047267;29;20175;-74
2022/07/07 10:09:31;;;;;;;5.20;1.92;;;;;;;16.84;82.96;102179.91;5046119;29;20129;-85
2022/07/07 10:12:03;;;;;;;5.30;1.60;;;;;;;17.25;81.69;102180.09;5046589;29;20442;-74
2022/07/07 10:14:42;;;;;;;6.63;2.45;;;;;;;17.83;78.81;102189.50;5045493;29;20086;-72
2022/07/07 10:17:16;;;;;;;6.20;1.80;;;;;;;18.52;76.96;102189.75;5046050;29;20038;-73
2022/07/07 10:19:47;;;;;;;6.90;1.98;;;;;;;17.95;75.80;102187.53;5045602;29;20109;-73
2022/07/07 10:22:26;;;;;;;5.03;2.00;;;;;;;17.71;77.08;102184.47;5045481;29;20130;-76
2022/07/07 10:25:00;;;;;;;4.57;1.60;;;;;;;17.44;78.04;102196.44;5046260;29;20456;-77
2022/07/07 10:27:33;;;;;;;8.25;2.10;;;;;;;17.38;79.15;102188.66;5046538;29;20393;-75
2022/07/07 10:30:05;;;;;;;5.20;1.65;;;;;;;17.29;79.91;102203.72;5046245;29;20486;-85
2022/07/07 10:32:41;;;;;;;6.30;1.95;;;;;;;17.15;81.80;102208.38;5045482;29;20105;-76
2022/07/07 10:35:15;;;;;;;3.78;1.55;;;;;;;17.27;80.71;102216.03;5044398;29;20042;-74
2022/07/07 10:37:49;;;;;;;5.57;1.33;;;;;;;17.38;80.51;102210.59;5045058;29;20064;-74
2022/07/07 10:40:20;;;;;;;6.25;2.25;;;;;;;17.76;78.19;102210.75;5045063;29;20042;-78
2022/07/07 10:43:25;;;;;;;4.80;1.87;;;;;;;18.88;74.72;102215.34;5045142;29;20140;-72
2022/07/07 10:45:56;;;;;;;5.63;2.40;;;;;;;19.24;70.94;102224.13;5043880;29;20482;-73
2022/07/07 10:48:43;;;;;;;6.20;1.40;;;;;;;19.67;69.36;102225.63;5043713;29;20034;-78
2022/07/07 10:51:24;;;;;;;3.90;1.50;;;;;;;19.46;69.41;102223.53;5043555;29;20034;-79
2022/07/07 10:54:03;;;;;;;4.63;1.45;;;;;;;18.90;70.13;102226.75;5044489;29;20447;-73
2022/07/07 10:56:55;;;;;;;6.35;1.73;;;;;;;18.27;75.05;102244.88;5046119;29;20062;-73
2022/07/07 10:59:28;;;;;;;4.22;1.70;;;;;;;17.57;79.87;102248.03;5044143;29;20038;-82
2022/07/07 11:02:02;;;;;;;;;;;;;;;17.68;79.21;102250.47;5047308;29;20018;-73
2022/07/07 11:04:43;;;;;;;5.28;1.92;;;;;;;17.39;81.47;102248.34;5048880;29;19916;-74
2022/07/07 11:07:19;;;;;;;4.18;1.88;;;;;;;17.52;80.00;102249.88;5049613;29;20044;-82
2022/07/07 11:10:04;;;;;;;6.22;2.00;;;;;;;17.81;79.58;102254.59;5048856;29;20071;-73
2022/07/07 11:12:45;;;;;;;3.50;1.60;;;;;;;18.11;76.82;102254.94;5051017;29;20178;-71
2022/07/07 11:15:24;;;;;;;6.78;2.70;;;;;;;18.53;75.02;102260.16;5050287;29;20022;-85
2022/07/07 11:18:00;;;;;;;3.50;1.77;;;;;;;19.12;73.73;102262.28;5045252;29;20097;-74
2022/07/07 11:20:32;;;;;;;8.40;2.60;;;;;;;19.89;70.80;102263.84;5044865;29;20359;-75
2022/07/07 11:23:08;;;;;;;6.80;2.08;;;;;;;19.98;69.21;102266.22;5045565;29;20030;-85
2022/07/07 11:25:41;;;;;;;5.90;2.33;;;;;;;19.31;71.31;102260.06;5046098;29;20074;-83
2022/07/07 11:28:12;;;;;;;8.00;2.67;;;;;;;18.83;72.76;102268.28;5051416;24;20045;-79
2022/07/07 11:30:44;;;;;;;5.23;1.90;;;;;;;18.67;74.07;102269.53;5028193;29;20053;-78
2022/07/07 11:33:20;;;;;;;7.33;2.37;;;;;;;18.47;76.29;102283.22;5045589;29;20030;-77
2022/07/07 11:35:54;;;;;;;7.82;2.25;;;;;;;18.22;76.36;102283.72;5045457;29;20387;-82
2022/07/07 11:38:28;;;;;;;10.70;3.40;;;;;;;18.17;75.45;102290.84;5049579;29;20105;-83
2022/07/07 11:40:59;;;;;;;6.78;2.30;;;;;;;18.28;75.15;102290.66;5048574;29;20034;-80
2022/07/07 11:43:31;;;;;;;6.80;2.43;;;;;;;18.34;74.70;102283.47;5049364;29;20038;-74
2022/07/07 11:46:03;;;;;;;11.17;2.97;;;;;;;18.38;74.09;102294.81;5054099;29;20470;-71
2022/07/07 11:48:38;;;;;;;5.45;1.75;;;;;;;18.42;75.06;102296.50;5053564;29;20030;-76
2022/07/07 11:51:10;;;;;;;6.07;1.90;;;;;;;18.63;74.03;102294.28;5051605;29;20411;-80
2022/07/07 11:53:41;;;;;;;9.07;2.33;;;;;;;18.87;71.10;102296.41;5028106;29;20128;-76